createdAt,value
2022-12-09T00:01:07.139Z,100731.09
2022-12-09T00:06:14.035Z,100728.66
2022-12-09T00:11:17.979Z,100729.84
2022-12-09T00:16:22.162Z,100730.97
2022-12-09T00:21:30.589Z,100733.25
2022-12-09T00:26:34.669Z,100729.91
2022-12-09T00:31:39.492Z,100733.88
2022-12-09T00:36:44.177Z,100738.84
2022-12-09T00:41:49.245Z,100734.16
2022-12-09T00:46:52.415Z,100744.63
2022-12-09T00:51:59.893Z,100743.94
2022-12-09T00:57:03.301Z,100747.53
2022-12-09T01:02:06.368Z,100746.63
2022-12-09T01:07:12.492Z,100745.75
2022-12-09T01:12:16.285Z,100755.22
2022-12-09T01:17:19.525Z,100748.44
2022-12-09T01:22:23.863Z,100751.13
2022-12-09T01:27:27.695Z,100766.31
2022-12-09T01:32:31.133Z,100753.88
2022-12-09T01:37:38.374Z,100756.88
2022-12-09T01:42:41.399Z,100755.94
2022-12-09T01:47:44.587Z,100753.72
2022-12-09T01:52:50.566Z,100754.22
2022-12-09T01:57:53.694Z,100757.59
2022-12-09T02:02:58.075Z,100752.19
2022-12-09T02:08:02.804Z,100750.59
2022-12-09T02:13:12.330Z,100755.78
2022-12-09T02:18:22.423Z,100754.34
2022-12-09T02:23:33.172Z,100749.28
2022-12-09T02:29:12.565Z,100742.22
2022-12-09T02:34:20.421Z,100736.22
2022-12-09T02:39:36.620Z,100740.41
2022-12-09T02:44:41.831Z,100737.19
2022-12-09T02:49:51.940Z,100730.38
2022-12-09T02:54:57.372Z,100735.09
2022-12-09T03:00:00.696Z,100727.44
2022-12-09T03:05:14.273Z,100731.94
2022-12-09T03:10:23.002Z,100734.53
2022-12-09T03:15:29.846Z,100731.84
2022-12-09T03:20:38.647Z,100733.75
2022-12-09T03:25:45.544Z,100719.75
2022-12-09T03:30:49.784Z,100730.25
2022-12-09T03:35:58.186Z,100727.66
2022-12-09T03:41:19.721Z,100713.69
2022-12-09T03:46:23.929Z,100714.25
2022-12-09T03:51:34.712Z,100712.63
2022-12-09T03:56:41.756Z,100706.19
2022-12-09T04:01:46.449Z,100701.09
2022-12-09T04:06:53.858Z,100706.75
2022-12-09T04:11:59.793Z,100698.22
2022-12-09T04:17:03.456Z,100701.97
2022-12-09T04:22:07.867Z,100700.59
2022-12-09T04:27:12.726Z,100703.25
2022-12-09T04:32:15.864Z,100701.53
2022-12-09T04:37:20.268Z,100694.31
2022-12-09T04:42:23.310Z,100694.56
2022-12-09T04:47:26.357Z,100705.69
2022-12-09T04:52:30.831Z,100704.41
2022-12-09T04:57:34.092Z,100714.91
2022-12-09T05:02:38.130Z,100706.06
2022-12-09T05:07:43.108Z,100712.34
2022-12-09T05:12:46.436Z,100712.97
2022-12-09T05:17:49.838Z,100707.88
2022-12-09T05:22:56.696Z,100703.50
2022-12-09T05:28:00.583Z,100691.41
2022-12-09T05:33:04.233Z,100692.00
2022-12-09T05:38:09.054Z,100691.22
2022-12-09T05:43:12.114Z,100683.00
2022-12-09T05:48:15.627Z,100681.97
2022-12-09T05:53:20.388Z,100690.41
2022-12-09T05:58:23.586Z,100693.34
2022-12-09T06:03:40.952Z,100697.72
2022-12-09T06:08:47.304Z,100696.47
2022-12-09T06:13:51.349Z,100692.78
2022-12-09T06:18:55.175Z,100701.44
2022-12-09T06:23:59.987Z,100703.44
2022-12-09T06:29:03.603Z,100705.38
2022-12-09T06:34:06.902Z,100710.66
2022-12-09T06:39:11.464Z,100698.19
2022-12-09T06:44:21.747Z,100698.94
2022-12-09T06:49:29.432Z,100696.22
2022-12-09T06:54:34.069Z,100704.19
2022-12-09T06:59:37.548Z,100708.53
2022-12-09T07:04:40.729Z,100712.84
2022-12-09T07:09:45.803Z,100716.53
2022-12-09T07:14:49.754Z,100720.22
2022-12-09T07:19:53.510Z,100716.94
2022-12-09T07:24:58.042Z,100727.78
2022-12-09T07:30:01.393Z,100722.94
2022-12-09T07:35:05.172Z,100714.72
2022-12-09T07:40:10.530Z,100711.88
2022-12-09T07:45:14.620Z,100706.47
2022-12-09T07:50:17.907Z,100707.81
2022-12-09T07:55:22.866Z,100710.91
2022-12-09T08:00:28.705Z,100708.88
2022-12-09T08:05:31.855Z,100716.88
2022-12-09T08:10:37.037Z,100723.69
2022-12-09T08:15:40.679Z,100721.88
2022-12-09T08:20:43.817Z,100727.28
2022-12-09T08:25:54.329Z,100730.78
2022-12-09T08:30:58.339Z,100718.78
2022-12-09T08:36:02.014Z,100718.66
2022-12-09T08:41:13.341Z,100721.47
2022-12-09T08:46:17.164Z,100727.13
2022-12-09T08:51:20.907Z,100716.50
2022-12-09T08:56:28.012Z,100729.59
2022-12-09T09:01:35.629Z,100720.53
2022-12-09T09:06:41.491Z,100724.03
2022-12-09T09:11:46.694Z,100735.75
2022-12-09T09:16:50.076Z,100737.63
2022-12-09T09:21:53.943Z,100744.72
2022-12-09T09:26:58.954Z,100743.28
2022-12-09T09:32:02.813Z,100748.09
2022-12-09T09:37:06.218Z,100754.81
2022-12-09T09:42:30.907Z,100754.69
2022-12-09T09:47:39.703Z,100747.94
2022-12-09T09:52:44.019Z,100755.22
2022-12-09T09:57:53.687Z,100755.75
2022-12-09T10:03:02.544Z,100748.78
2022-12-09T10:08:23.769Z,100748.00
2022-12-09T10:13:44.331Z,100746.09
2022-12-09T10:19:07.735Z,100740.50
2022-12-09T10:24:24.943Z,100737.63
2022-12-09T10:29:42.804Z,100719.34
2022-12-09T10:34:47.748Z,100735.69
2022-12-09T10:39:53.677Z,100738.59
2022-12-09T10:45:07.912Z,100739.31
2022-12-09T10:50:27.396Z,100725.34
2022-12-09T10:55:35.834Z,100718.41
2022-12-09T11:00:40.444Z,100735.66
2022-12-09T11:05:43.944Z,100720.53
2022-12-09T11:10:50.467Z,100717.53
2022-12-09T11:15:59.456Z,100712.75
2022-12-09T11:21:05.876Z,100710.69
2022-12-09T11:26:24.524Z,100708.00
2022-12-09T11:31:33.789Z,100709.97
2022-12-09T11:36:44.373Z,100704.97
2022-12-09T11:42:11.501Z,100710.69
2022-12-09T11:47:27.825Z,100704.81
2022-12-09T11:52:32.169Z,100697.91
2022-12-09T11:57:37.933Z,100709.72
2022-12-09T12:02:48.164Z,100709.19
2022-12-09T12:08:02.154Z,100697.91
2022-12-09T12:13:13.454Z,100706.19
2022-12-09T12:18:20.450Z,100708.50
2022-12-09T12:23:42.650Z,100701.94
2022-12-09T12:29:07.486Z,100708.47
2022-12-09T12:34:26.705Z,100703.13
2022-12-09T12:39:43.961Z,100704.47
2022-12-09T12:45:10.679Z,100714.03
2022-12-09T12:50:43.373Z,100710.78
2022-12-09T12:55:56.413Z,100705.16
2022-12-09T13:01:05.302Z,100697.19
2022-12-09T13:06:15.026Z,100705.50
2022-12-09T13:11:22.820Z,100704.53
2022-12-09T13:16:29.147Z,100700.50
2022-12-09T13:21:34.027Z,100693.94
2022-12-09T13:26:45.659Z,100689.94
2022-12-09T13:31:56.884Z,100694.16
2022-12-09T13:37:01.355Z,100695.19
2022-12-09T13:42:21.698Z,100695.16
2022-12-09T13:47:34.951Z,100688.31
2022-12-09T13:52:50.455Z,100688.78
2022-12-09T13:58:12.711Z,100687.97
2022-12-09T14:03:27.003Z,100687.56
2022-12-09T14:08:35.794Z,100681.38
2022-12-09T14:13:38.970Z,100690.69
2022-12-09T14:18:42.939Z,100676.63
2022-12-09T14:24:19.406Z,100674.59
2022-12-09T14:29:52.623Z,100685.91
2022-12-09T14:35:07.268Z,100686.19
2022-12-09T14:40:31.046Z,100689.41
2022-12-09T14:45:48.530Z,100686.03
2022-12-09T14:51:07.889Z,100688.53
2022-12-09T14:56:18.259Z,100693.03
2022-12-09T15:01:22.889Z,100689.63
2022-12-09T15:06:28.890Z,100700.09
2022-12-09T15:11:35.393Z,100694.59
2022-12-09T15:16:47.698Z,100693.81
2022-12-09T15:21:53.960Z,100700.00
2022-12-09T15:27:02.097Z,100704.19
2022-12-09T15:32:21.230Z,100707.56
2022-12-09T15:37:28.388Z,100714.34
2022-12-09T15:42:35.332Z,100714.03
2022-12-09T15:47:43.550Z,100725.19
2022-12-09T15:52:52.365Z,100718.03
2022-12-09T15:58:00.493Z,100714.84
2022-12-09T16:03:06.469Z,100710.59
2022-12-09T16:08:10.849Z,100724.34
2022-12-09T16:13:16.206Z,100720.34
2022-12-09T16:18:26.206Z,100720.94
2022-12-09T16:23:30.135Z,100717.03
2022-12-09T16:28:33.184Z,100704.56
2022-12-09T16:33:41.115Z,100705.47
2022-12-09T16:39:05.294Z,100720.88
2022-12-09T16:44:19.861Z,100731.78
2022-12-09T16:49:25.394Z,100726.69
2022-12-09T16:54:31.192Z,100727.72
2022-12-09T16:59:38.169Z,100737.81
2022-12-09T17:04:42.921Z,100733.84
2022-12-09T17:09:46.003Z,100729.25
2022-12-09T17:14:49.900Z,100747.88
2022-12-09T17:19:55.374Z,100743.91
2022-12-09T17:24:58.499Z,100753.78
2022-12-09T17:30:01.499Z,100753.06
2022-12-09T17:35:12.052Z,100762.50
2022-12-09T17:40:15.797Z,100764.84
2022-12-09T17:45:18.977Z,100769.53
2022-12-09T17:50:23.335Z,100780.41
2022-12-09T17:55:26.418Z,100779.34
2022-12-09T18:00:30.133Z,100774.38
2022-12-09T18:05:37.647Z,100781.34
2022-12-09T18:10:40.757Z,100777.50
2022-12-09T18:15:43.775Z,100785.13
2022-12-09T18:20:48.180Z,100780.25
2022-12-09T18:25:51.305Z,100774.59
2022-12-09T18:30:56.296Z,100782.22
2022-12-09T18:36:00.750Z,100783.56
2022-12-09T18:41:04.688Z,100784.97
2022-12-09T18:46:10.924Z,100793.47
2022-12-09T18:51:20.529Z,100794.03
2022-12-09T18:56:25.136Z,100804.22
2022-12-09T19:01:30.077Z,100796.75
2022-12-09T19:06:35.811Z,100798.31
2022-12-09T19:11:40.651Z,100810.84
2022-12-09T19:16:44.417Z,100820.66
2022-12-09T19:21:49.302Z,100812.00
2022-12-09T19:26:53.876Z,100827.13
2022-12-09T19:31:58.457Z,100824.41
2022-12-09T19:37:03.355Z,100814.97
2022-12-09T19:42:06.439Z,100826.09
2022-12-09T19:47:09.386Z,100825.84
2022-12-09T19:52:14.017Z,100823.38
2022-12-09T19:57:17.032Z,100825.84
2022-12-09T20:02:20.609Z,100825.69
2022-12-09T20:07:25.025Z,100823.75
2022-12-09T20:12:28.140Z,100825.47
2022-12-09T20:17:31.177Z,100834.72
2022-12-09T20:22:35.669Z,100830.38
2022-12-09T20:27:38.647Z,100840.53
2022-12-09T20:32:43.845Z,100834.38
2022-12-09T20:37:48.233Z,100836.78
2022-12-09T20:42:51.209Z,100842.34
2022-12-09T20:47:54.197Z,100856.94
2022-12-09T20:53:01.716Z,100853.19
2022-12-09T20:58:04.719Z,100857.19
2022-12-09T21:03:07.767Z,100855.91
2022-12-09T21:08:12.368Z,100862.88
2022-12-09T21:13:16.012Z,100864.38
2022-12-09T21:18:18.969Z,100865.84
2022-12-09T21:23:33.695Z,100865.56
2022-12-09T21:28:38.800Z,100864.28
2022-12-09T21:33:42.667Z,100854.19
2022-12-09T21:38:47.513Z,100855.75
2022-12-09T21:43:50.575Z,100854.47
2022-12-09T21:49:01.579Z,100844.03
2022-12-09T21:54:07.972Z,100855.22
2022-12-09T21:59:11.949Z,100858.34
2022-12-09T22:04:17.509Z,100873.53
2022-12-09T22:09:21.964Z,100865.91
2022-12-09T22:14:24.965Z,100875.84
2022-12-09T22:19:27.994Z,100874.94
2022-12-09T22:24:32.462Z,100874.03
2022-12-09T22:29:36.801Z,100878.81
2022-12-09T22:34:39.842Z,100872.25
2022-12-09T22:39:45.295Z,100878.03
2022-12-09T22:44:48.459Z,100875.72
2022-12-09T22:49:51.469Z,100887.22
2022-12-09T22:54:55.816Z,100886.31
2022-12-09T22:59:58.915Z,100904.09
2022-12-09T23:05:01.911Z,100908.31
2022-12-09T23:10:07.604Z,100913.47
2022-12-09T23:15:11.879Z,100907.84
2022-12-09T23:20:14.934Z,100917.13
2022-12-09T23:25:19.412Z,100933.91
2022-12-09T23:30:22.392Z,100922.53
2022-12-09T23:35:28.203Z,100908.38
2022-12-09T23:40:32.633Z,100908.63
2022-12-09T23:45:35.708Z,100916.59
2022-12-09T23:50:38.715Z,100912.75
2022-12-09T23:55:44.406Z,100904.44
